Time;durP1;ratioP1;P1;durP2;ratioP2;P2;SDS_P1;SDS_P2;PMS_P1;PMS_P2;Temp;Humidity;BMP_temperature;BMP_pressure;BME280_temperature;BME280_humidity;BME280_pressure;Samples;Min_cycle;Max_cycle;Signal;HPM_P1;HPM_P2
2022/07/29 00:01:16;;;;;;;4.40;3.95;;;19.50;99.90;;;;;;4984619;28;20084;-72
2022/07/29 00:03:43;;;;;;;6.07;4.60;;;19.50;99.90;;;;;;5000394;28;20042;-72
2022/07/29 00:06:15;;;;;;;4.70;4.28;;;19.40;99.90;;;;;;4999566;28;20101;-72
2022/07/29 00:08:41;;;;;;;5.00;4.57;;;19.50;99.90;;;;;;5006417;28;20038;-72
2022/07/29 00:11:13;;;;;;;5.93;4.43;;;19.40;99.90;;;;;;5000652;28;20072;-72
2022/07/29 00:13:40;;;;;;;5.15;4.65;;;19.40;99.90;;;;;;4993862;28;20046;-72
2022/07/29 00:16:12;;;;;;;4.88;4.35;;;19.40;99.90;;;;;;4996478;28;20494;-72
2022/07/29 00:18:44;;;;;;;5.20;4.70;;;19.40;99.90;;;;;;5004987;28;20084;-72
2022/07/29 00:21:15;;;;;;;5.50;4.55;;;19.30;99.90;;;;;;5004161;28;20055;-73
2022/07/29 00:23:42;;;;;;;4.93;4.32;;;19.30;99.90;;;;;;5005208;28;20432;-72
2022/07/29 00:26:14;;;;;;;4.97;4.28;;;19.20;99.90;;;;;;5010421;28;20064;-72
2022/07/29 00:28:45;;;;;;;5.80;4.88;;;18.90;99.90;;;;;;5003626;28;20141;-72
2022/07/29 00:31:17;;;;;;;5.85;5.20;;;18.70;99.90;;;;;;5003600;28;20548;-72
2022/07/29 00:33:49;;;;;;;7.70;5.00;;;18.50;99.90;;;;;;5001272;28;20124;-72
2022/07/29 00:36:21;;;;;;;6.72;5.22;;;18.50;99.90;;;;;;5012233;28;20054;-72
2022/07/29 00:38:53;;;;;;;5.82;5.22;;;18.40;99.90;;;;;;5018773;28;20049;-72
2022/07/29 00:41:25;;;;;;;6.53;5.93;;;18.40;99.90;;;;;;5013582;28;20068;-72
2022/07/29 00:43:56;;;;;;;8.02;7.18;;;18.20;99.90;;;;;;5015840;28;20052;-72
2022/07/29 00:46:28;;;;;;;7.88;7.07;;;18.20;99.90;;;;;;5013789;28;20041;-71
2022/07/29 00:49:00;;;;;;;7.45;6.72;;;18.20;99.90;;;;;;5011439;28;20508;-71
2022/07/29 00:51:32;;;;;;;7.13;6.43;;;18.10;99.90;;;;;;5012268;28;20038;-71
2022/07/29 00:54:05;;;;;;;6.60;6.00;;;18.20;99.90;;;;;;4996343;28;20041;-71
2022/07/29 00:56:36;;;;;;;7.22;6.07;;;18.20;99.90;;;;;;5017631;28;20042;-72
2022/07/29 00:59:08;;;;;;;6.78;5.78;;;18.20;99.90;;;;;;5021853;28;20052;-72
2022/07/29 01:01:40;;;;;;;6.80;6.13;;;18.30;99.90;;;;;;5016646;28;20053;-72
2022/07/29 01:04:12;;;;;;;7.03;6.03;;;18.20;99.90;;;;;;5001857;28;20038;-72
2022/07/29 01:06:38;;;;;;;6.93;6.07;;;18.20;99.90;;;;;;4988236;28;20791;-72
2022/07/29 01:09:06;;;;;;;6.43;5.90;;;18.10;99.90;;;;;;5012003;28;20117;-72
2022/07/29 01:11:39;;;;;;;6.78;6.18;;;18.10;99.90;;;;;;5034895;28;20036;-72
2022/07/29 01:14:11;;;;;;;8.55;6.68;;;18.00;99.90;;;;;;5006189;28;20050;-72
2022/07/29 01:17:01;;;;;;;7.53;6.30;;;18.00;99.90;;;;;;5002273;28;20417;-72
2022/07/29 01:19:56;;;;;;;7.75;6.57;;;18.00;99.90;;;;;;5015806;28;20042;-72
2022/07/29 01:22:34;;;;;;;6.97;6.35;;;18.00;99.90;;;;;;5015653;28;20074;-72
2022/07/29 01:25:32;;;;;;;7.50;6.80;;;18.00;99.90;;;;;;5002460;28;20085;-72
2022/07/29 01:28:41;;;;;;;6.68;6.07;;;17.90;99.90;;;;;;5008681;28;20537;-71
2022/07/29 01:31:10;;;;;;;9.10;6.53;;;17.90;99.90;;;;;;5019388;28;20052;-72
2022/07/29 01:33:49;;;;;;;7.38;6.57;;;17.80;99.90;;;;;;5004344;28;20528;-72
2022/07/29 01:36:34;;;;;;;7.97;6.80;;;17.80;99.90;;;;;;5007929;28;20080;-72
2022/07/29 01:39:13;;;;;;;6.85;6.25;;;17.80;99.90;;;;;;5021190;28;20151;-72
2022/07/29 01:42:08;;;;;;;6.45;5.85;;;17.70;99.90;;;;;;5015485;28;20539;-72
2022/07/29 01:44:50;;;;;;;7.60;6.78;;;17.60;99.90;;;;;;5003910;28;20405;-72
2022/07/29 01:47:31;;;;;;;8.88;6.28;;;17.70;99.90;;;;;;5021168;28;20520;-72
2022/07/29 01:50:08;;;;;;;6.25;5.70;;;17.80;99.90;;;;;;5003563;28;20425;-72
2022/07/29 01:52:46;;;;;;;7.47;5.93;;;17.80;99.90;;;;;;5018616;28;20045;-72
2022/07/29 01:55:22;;;;;;;6.93;5.90;;;17.80;99.90;;;;;;5006666;28;20049;-72
2022/07/29 01:57:57;;;;;;;7.07;5.70;;;17.80;99.90;;;;;;4991121;28;20046;-72
2022/07/29 02:00:31;;;;;;;7.88;5.70;;;17.80;99.90;;;;;;4972118;28;20054;-72
2022/07/29 02:03:09;;;;;;;6.72;6.03;;;17.80;99.90;;;;;;5004796;28;20049;-72
2022/07/29 02:05:43;;;;;;;7.72;5.65;;;17.80;99.90;;;;;;5020417;28;20072;-72
2022/07/29 02:08:18;;;;;;;7.03;6.32;;;17.80;99.90;;;;;;4999868;28;20052;-72
2022/07/29 02:10:51;;;;;;;6.95;6.35;;;17.80;99.90;;;;;;5023101;28;20532;-72
2022/07/29 02:13:24;;;;;;;;;;;17.80;99.90;;;;;;5008047;28;20056;-72
2022/07/29 02:15:51;;;;;;;7.25;6.55;;;17.80;99.90;;;;;;5024766;28;19925;-72
2022/07/29 02:18:25;;;;;;;7.03;6.32;;;17.70;99.90;;;;;;4988886;28;20045;-72
2022/07/29 02:20:58;;;;;;;;;;;17.60;99.90;;;;;;5012803;28;20146;-72
2022/07/29 02:23:32;;;;;;;7.70;6.72;;;17.60;99.90;;;;;;4999358;28;19928;-72
2022/07/29 02:26:04;;;;;;;7.63;5.93;;;17.50;99.90;;;;;;4987696;28;20042;-72
2022/07/29 02:28:36;;;;;;;7.43;6.25;;;17.50;99.90;;;;;;5022901;28;20046;-72
2022/07/29 02:31:09;;;;;;;6.88;6.18;;;17.50;99.90;;;;;;5000248;28;20045;-72
2022/07/29 02:33:38;;;;;;;6.20;5.60;;;17.50;99.90;;;;;;5003824;28;20502;-72
2022/07/29 02:36:11;;;;;;;7.40;6.32;;;17.50;99.90;;;;;;5023717;28;20041;-72
2022/07/29 02:38:57;;;;;;;6.80;5.93;;;17.50;99.90;;;;;;5004853;28;20045;-72
2022/07/29 02:41:33;;;;;;;7.88;5.30;;;17.40;99.90;;;;;;4981217;28;20048;-72
2022/07/29 02:44:19;;;;;;;6.35;5.68;;;17.50;99.90;;;;;;5023080;28;20030;-72
2022/07/29 02:46:52;;;;;;;6.50;5.88;;;17.60;99.90;;;;;;5022334;28;20042;-72
2022/07/29 02:49:31;;;;;;;;;;;17.60;99.90;;;;;;5001960;28;20129;-72
2022/07/29 02:52:17;;;;;;;5.68;5.13;;;17.60;99.90;;;;;;5014284;28;19929;-72
2022/07/29 02:55:01;;;;;;;5.65;5.05;;;17.60;99.90;;;;;;5001962;28;20057;-72
2022/07/29 02:57:40;;;;;;;5.05;4.55;;;17.50;99.90;;;;;;5023808;28;20045;-72
2022/07/29 03:00:13;;;;;;;6.53;5.03;;;17.60;99.90;;;;;;5020957;28;20045;-72
2022/07/29 03:02:50;;;;;;;5.07;4.57;;;17.60;99.90;;;;;;5011086;28;20064;-72
2022/07/29 03:05:23;;;;;;;5.40;4.90;;;17.70;99.90;;;;;;5006925;28;20038;-72
2022/07/29 03:08:01;;;;;;;6.40;5.20;;;17.70;99.90;;;;;;5002075;28;20045;-72
2022/07/29 03:10:33;;;;;;;5.38;4.88;;;17.70;99.90;;;;;;5021868;28;20069;-72
2022/07/29 03:13:06;;;;;;;5.93;5.20;;;17.70;99.90;;;;;;5013011;28;20401;-72
2022/07/29 03:15:38;;;;;;;6.07;4.97;;;17.70;99.90;;;;;;4993389;28;20303;-72
2022/07/29 03:18:11;;;;;;;6.03;5.18;;;17.80;99.90;;;;;;5018294;28;20045;-72
2022/07/29 03:20:42;;;;;;;5.93;5.32;;;17.80;99.90;;;;;;5003517;28;20037;-72
2022/07/29 03:23:19;;;;;;;8.90;5.43;;;17.80;99.90;;;;;;4994948;28;20044;-72
2022/07/29 03:25:52;;;;;;;5.43;4.93;;;17.80;99.90;;;;;;4998263;28;20055;-72
2022/07/29 03:28:24;;;;;;;5.55;5.00;;;17.70;99.90;;;;;;5000919;28;20038;-72
2022/07/29 03:30:55;;;;;;;5.38;4.88;;;17.70;99.90;;;;;;5020928;28;20068;-72
2022/07/29 03:33:28;;;;;;;6.10;4.60;;;17.70;99.90;;;;;;4985989;28;20060;-72
2022/07/29 03:36:02;;;;;;;5.55;5.03;;;17.80;99.90;;;;;;5013760;28;20046;-72
2022/07/29 03:38:36;;;;;;;5.72;5.15;;;17.80;99.90;;;;;;5006075;28;20520;-72
2022/07/29 03:41:11;;;;;;;5.93;5.32;;;17.90;99.90;;;;;;5022387;28;20125;-72
2022/07/29 03:43:43;;;;;;;6.25;5.43;;;17.90;99.90;;;;;;5011833;28;20041;-72
2022/07/29 03:46:17;;;;;;;7.17;5.17;;;17.80;99.90;;;;;;5007836;28;20045;-72
2022/07/29 03:48:52;;;;;;;5.93;5.32;;;17.70;99.90;;;;;;5000353;28;20286;-72
2022/07/29 03:51:26;;;;;;;5.47;5.05;;;17.70;99.90;;;;;;5002780;28;20045;-72
2022/07/29 03:53:57;;;;;;;;;;;17.60;99.90;;;;;;5008398;28;20049;-72
2022/07/29 03:56:26;;;;;;;5.55;5.03;;;17.50;99.90;;;;;;5003976;28;19921;-72
2022/07/29 03:58:58;;;;;;;;;;;17.50;99.90;;;;;;5004265;28;20053;-72
2022/07/29 04:01:33;;;;;;;5.20;4.70;;;17.50;99.90;;;;;;4983108;28;19921;-72
2022/07/29 04:04:05;;;;;;;6.85;5.47;;;17.40;99.90;;;;;;4985980;28;20046;-72
2022/07/29 04:06:41;;;;;;;9.10;6.47;;;17.30;99.90;;;;;;5006812;28;20513;-72
2022/07/29 04:09:14;;;;;;;5.00;4.47;;;17.20;99.90;;;;;;4986804;28;20056;-72
2022/07/29 04:11:46;;;;;;;5.47;4.97;;;17.20;99.90;;;;;;5019040;28;20058;-73
2022/07/29 04:14:18;;;;;;;5.95;5.30;;;17.20;99.90;;;;;;5017579;28;20048;-72
2022/07/29 04:16:49;;;;;;;6.25;5.20;;;17.20;99.90;;;;;;5009401;28;20038;-72
2022/07/29 04:19:22;;;;;;;5.28;4.78;;;17.20;99.90;;;;;;5025607;28;20069;-72
2022/07/29 04:21:54;;;;;;;5.33;4.80;;;17.10;99.90;;;;;;5009984;28;20042;-72
2022/07/29 04:24:26;;;;;;;5.28;4.78;;;17.10;99.90;;;;;;5000507;28;20298;-72
2022/07/29 04:26:58;;;;;;;5.82;5.10;;;17.10;99.90;;;;;;5000917;28;20048;-72
2022/07/29 04:29:29;;;;;;;5.57;4.75;;;17.10;99.90;;;;;;5012066;28;20045;-72
2022/07/29 04:32:01;;;;;;;6.38;4.88;;;17.10;99.90;;;;;;4999428;28;20047;-72
2022/07/29 04:34:33;;;;;;;5.85;5.35;;;17.10;99.90;;;;;;4988144;28;20050;-72
2022/07/29 04:37:05;;;;;;;5.28;4.78;;;17.20;99.90;;;;;;5011767;28;20049;-72
2022/07/29 04:39:36;;;;;;;4.70;4.28;;;17.10;99.90;;;;;;4998012;28;20080;-72
2022/07/29 04:42:08;;;;;;;7.05;4.90;;;17.10;99.90;;;;;;5004720;28;20076;-73
2022/07/29 04:44:40;;;;;;;5.25;4.57;;;17.10;99.90;;;;;;5018885;28;20454;-74
2022/07/29 04:47:11;;;;;;;6.18;4.78;;;17.20;99.90;;;;;;5006322;28;20042;-74
2022/07/29 04:49:43;;;;;;;5.18;4.68;;;17.30;99.90;;;;;;4992559;28;20056;-74
2022/07/29 04:52:15;;;;;;;5.65;5.05;;;17.20;99.90;;;;;;4979276;28;20069;-74
2022/07/29 04:54:47;;;;;;;5.68;5.18;;;17.20;99.90;;;;;;5023069;28;20516;-74
2022/07/29 04:57:19;;;;;;;5.88;4.57;;;17.30;99.90;;;;;;5009961;28;20124;-74
2022/07/29 04:59:50;;;;;;;5.90;5.38;;;17.30;99.90;;;;;;5013334;28;20049;-74
2022/07/29 05:02:22;;;;;;;7.32;4.55;;;17.30;99.90;;;;;;4999400;28;20034;-74
2022/07/29 05:04:54;;;;;;;5.72;5.22;;;17.40;99.90;;;;;;4996971;28;20069;-74
2022/07/29 05:07:26;;;;;;;5.70;5.15;;;17.40;99.90;;;;;;5025478;28;20057;-74
2022/07/29 05:09:57;;;;;;;5.88;5.38;;;17.50;99.90;;;;;;4997362;28;20535;-74
2022/07/29 05:12:25;;;;;;;8.05;5.28;;;17.50;99.90;;;;;;5010175;28;20049;-72
2022/07/29 05:14:57;;;;;;;6.53;5.45;;;17.50;99.90;;;;;;5015659;28;20498;-72
2022/07/29 05:17:28;;;;;;;5.53;5.03;;;17.60;99.90;;;;;;5012660;28;20478;-72
2022/07/29 05:20:00;;;;;;;5.70;5.20;;;17.60;99.90;;;;;;4998907;28;20058;-72
2022/07/29 05:22:32;;;;;;;4.90;4.18;;;17.60;99.90;;;;;;4989994;28;20054;-72
2022/07/29 05:25:04;;;;;;;5.90;5.05;;;17.70;99.90;;;;;;5020485;28;20532;-72
2022/07/29 05:27:36;;;;;;;6.05;5.07;;;17.80;99.90;;;;;;5010587;28;20056;-72
2022/07/29 05:30:08;;;;;;;6.03;5.53;;;17.80;99.90;;;;;;5010668;23;20046;-71
2022/07/29 05:32:40;;;;;;;7.05;5.35;;;17.90;99.90;;;;;;4991722;28;20501;-71
2022/07/29 05:35:13;;;;;;;5.70;5.20;;;17.90;99.90;;;;;;4991494;28;20068;-71
2022/07/29 05:37:44;;;;;;;5.07;4.57;;;17.90;99.90;;;;;;5006549;28;20685;-70
2022/07/29 05:40:16;;;;;;;5.82;4.95;;;18.00;99.90;;;;;;5026328;28;20050;-70
2022/07/29 05:42:43;;;;;;;6.30;5.72;;;18.10;99.90;;;;;;5026344;28;20045;-71
2022/07/29 05:45:14;;;;;;;10.35;7.20;;;18.20;99.90;;;;;;5027104;28;20567;-71
2022/07/29 05:47:46;;;;;;;8.70;7.78;;;18.30;99.90;;;;;;5026842;28;20041;-70
2022/07/29 05:50:18;;;;;;;14.20;10.85;;;18.40;99.90;;;;;;5010607;28;20421;-71
2022/07/29 05:52:50;;;;;;;24.27;19.65;;;18.40;99.90;;;;;;5014612;28;20045;-71
2022/07/29 05:55:21;;;;;;;19.88;14.93;;;18.40;99.90;;;;;;5013049;28;20041;-70
2022/07/29 05:57:53;;;;;;;10.38;7.75;;;18.50;99.90;;;;;;5028165;28;20041;-70
2022/07/29 06:00:20;;;;;;;8.73;7.85;;;18.50;99.90;;;;;;5026475;28;20037;-72
2022/07/29 06:02:52;;;;;;;8.10;7.40;;;18.60;99.90;;;;;;5032024;28;20057;-70
2022/07/29 06:05:23;;;;;;;7.63;6.93;;;18.60;99.90;;;;;;5017617;28;20042;-70
2022/07/29 06:07:55;;;;;;;12.20;9.82;;;18.70;99.90;;;;;;5028031;28;20041;-71
2022/07/29 06:10:27;;;;;;;10.05;9.07;;;18.70;99.90;;;;;;5027134;28;20042;-70
2022/07/29 06:12:58;;;;;;;8.57;7.70;;;18.70;99.90;;;;;;5033681;28;20071;-70
2022/07/29 06:15:30;;;;;;;8.45;7.65;;;18.80;99.90;;;;;;5037074;28;20041;-71
2022/07/29 06:18:02;;;;;;;10.73;7.82;;;18.90;99.90;;;;;;5044394;28;20505;-70
2022/07/29 06:20:34;;;;;;;8.40;5.65;;;18.90;99.90;;;;;;5015730;28;20073;-71
2022/07/29 06:23:05;;;;;;;5.90;5.40;;;19.00;99.90;;;;;;5014488;28;20417;-70
2022/07/29 06:25:39;;;;;;;5.68;5.18;;;19.10;99.90;;;;;;5020946;28;20522;-70
2022/07/29 06:28:11;;;;;;;9.75;6.93;;;19.10;99.90;;;;;;5037019;28;20032;-70
2022/07/29 06:30:42;;;;;;;7.18;5.85;;;19.20;99.90;;;;;;5043813;28;20065;-71
2022/07/29 06:33:15;;;;;;;8.23;7.05;;;19.30;99.90;;;;;;5043006;28;20052;-71
2022/07/29 06:35:47;;;;;;;7.53;6.90;;;19.40;99.90;;;;;;5052581;28;20400;-71
2022/07/29 06:38:14;;;;;;;6.18;5.55;;;19.50;99.90;;;;;;5036285;28;20492;-70
2022/07/29 06:41:05;;;;;;;7.13;5.03;;;19.50;99.90;;;;;;5025834;28;20042;-70
2022/07/29 06:43:41;;;;;;;6.45;5.07;;;19.60;99.90;;;;;;5012792;28;20050;-71
2022/07/29 06:46:17;;;;;;;7.63;5.82;;;19.70;99.90;;;;;;5013440;28;20056;-71
2022/07/29 06:48:49;;;;;;;5.75;5.07;;;19.70;99.90;;;;;;5014063;28;20046;-70
2022/07/29 06:51:22;;;;;;;5.18;4.78;;;19.80;99.90;;;;;;5039764;28;20045;-70
2022/07/29 06:53:53;;;;;;;4.97;4.45;;;19.80;99.90;;;;;;5019242;28;20417;-70
2022/07/29 06:56:26;;;;;;;7.00;6.22;;;19.90;99.90;;;;;;5012342;28;20053;-70
2022/07/29 06:58:57;;;;;;;9.93;8.73;;;19.90;99.90;;;;;;5029610;28;20056;-70
2022/07/29 07:01:29;;;;;;;5.60;5.10;;;20.00;99.90;;;;;;5034033;28;20505;-71
2022/07/29 07:04:01;;;;;;;4.95;4.43;;;20.00;99.90;;;;;;5053476;28;20068;-70
2022/07/29 07:06:33;;;;;;;6.60;4.90;;;20.00;99.90;;;;;;5035701;28;20072;-72
2022/07/29 07:09:04;;;;;;;5.38;4.80;;;20.00;99.90;;;;;;5019869;28;20382;-70
2022/07/29 07:11:36;;;;;;;7.22;6.45;;;20.10;99.90;;;;;;5048111;28;20473;-70
2022/07/29 07:14:08;;;;;;;7.25;6.50;;;20.00;99.90;;;;;;5035975;28;20041;-70
2022/07/29 07:16:40;;;;;;;6.55;5.95;;;20.10;99.90;;;;;;5040300;28;20042;-70
2022/07/29 07:19:11;;;;;;;5.80;5.20;;;20.20;99.90;;;;;;5025320;28;20041;-70
2022/07/29 07:21:43;;;;;;;5.70;4.82;;;20.20;99.90;;;;;;5030154;28;20050;-70
2022/07/29 07:24:15;;;;;;;6.90;6.20;;;20.30;99.90;;;;;;5044643;28;20051;-70
2022/07/29 07:26:50;;;;;;;5.95;4.93;;;20.30;99.90;;;;;;5034601;28;20072;-71
2022/07/29 07:29:18;;;;;;;6.53;4.93;;;20.40;99.90;;;;;;5029326;28;20068;-71
2022/07/29 07:31:50;;;;;;;9.88;5.93;;;20.50;99.90;;;;;;5033678;28;20125;-70
2022/07/29 07:34:22;;;;;;;7.28;6.57;;;20.50;99.90;;;;;;5031971;28;20050;-70
2022/07/29 07:36:53;;;;;;;6.63;6.03;;;20.50;99.90;;;;;;5034607;28;20045;-70
2022/07/29 07:39:25;;;;;;;6.60;5.63;;;20.50;99.90;;;;;;5020824;28;20046;-72
2022/07/29 07:41:57;;;;;;;6.22;5.57;;;20.50;99.90;;;;;;5015452;28;20532;-71
2022/07/29 07:44:29;;;;;;;5.50;5.00;;;20.50;99.90;;;;;;5032225;28;20051;-70
2022/07/29 07:47:01;;;;;;;6.75;4.70;;;20.50;99.90;;;;;;5035712;28;20484;-70
2022/07/29 07:49:32;;;;;;;6.40;4.50;;;20.50;99.90;;;;;;5036087;28;20030;-71
2022/07/29 07:52:05;;;;;;;7.60;5.75;;;20.50;99.90;;;;;;5012077;28;20502;-70
2022/07/29 07:54:37;;;;;;;5.40;4.90;;;20.50;99.90;;;;;;5012309;28;20052;-70
2022/07/29 07:57:09;;;;;;;5.68;5.15;;;20.50;99.90;;;;;;5026868;28;20051;-71
2022/07/29 07:59:41;;;;;;;6.32;4.95;;;20.50;99.90;;;;;;5041074;28;20041;-70
2022/07/29 08:02:13;;;;;;;5.60;5.03;;;20.50;99.90;;;;;;5021718;28;20564;-70
2022/07/29 08:04:45;;;;;;;5.40;4.97;;;20.60;99.90;;;;;;5003015;28;20044;-70
2022/07/29 08:07:17;;;;;;;5.93;5.32;;;20.60;99.90;;;;;;5028269;28;20528;-70
2022/07/29 08:09:48;;;;;;;6.63;5.57;;;20.70;99.90;;;;;;5030494;28;20046;-70
2022/07/29 08:12:20;;;;;;;6.13;5.03;;;20.70;99.90;;;;;;5043758;28;20095;-69
2022/07/29 08:14:52;;;;;;;5.25;4.70;;;20.70;99.90;;;;;;5014607;28;20045;-70
2022/07/29 08:17:24;;;;;;;5.72;3.72;;;20.60;99.90;;;;;;5013721;28;20051;-71
2022/07/29 08:19:55;;;;;;;4.05;3.65;;;20.70;99.90;;;;;;5028106;28;20044;-70
2022/07/29 08:22:27;;;;;;;3.75;3.45;;;20.60;99.90;;;;;;5018542;28;20068;-70
2022/07/29 08:24:59;;;;;;;4.90;3.33;;;20.60;99.90;;;;;;5014339;28;20041;-70
2022/07/29 08:27:31;;;;;;;4.15;3.20;;;20.60;99.90;;;;;;5031483;28;20416;-71
2022/07/29 08:30:04;;;;;;;3.83;3.40;;;20.70;99.90;;;;;;5023098;28;20508;-70
2022/07/29 08:32:31;;;;;;;4.70;3.35;;;20.70;99.90;;;;;;5027794;28;20417;-70
2022/07/29 08:35:03;;;;;;;3.72;3.10;;;20.70;99.90;;;;;;5034715;28;20049;-71
2022/07/29 08:37:34;;;;;;;3.40;3.10;;;20.70;99.90;;;;;;5024684;28;20045;-70
2022/07/29 08:40:06;;;;;;;4.28;3.60;;;20.80;99.90;;;;;;5009083;28;20461;-71
2022/07/29 08:42:38;;;;;;;4.25;3.10;;;20.80;99.90;;;;;;5038013;28;20051;-71
2022/07/29 08:45:10;;;;;;;3.38;2.70;;;20.90;99.90;;;;;;5033366;28;20033;-71
2022/07/29 08:47:39;;;;;;;4.00;2.85;;;21.00;99.90;;;;;;5045748;28;20420;-71
2022/07/29 08:50:11;;;;;;;4.63;3.65;;;21.00;99.90;;;;;;5034053;28;21500;-71
2022/07/29 08:52:43;;;;;;;2.95;2.75;;;21.10;99.90;;;;;;5045053;28;20045;-71
2022/07/29 08:55:15;;;;;;;3.70;3.30;;;21.10;99.90;;;;;;5014600;28;20057;-71
2022/07/29 08:57:42;;;;;;;3.70;3.35;;;21.10;99.90;;;;;;5031601;28;20118;-71
2022/07/29 09:00:17;;;;;;;4.15;3.20;;;21.10;99.90;;;;;;5030190;28;20127;-71
2022/07/29 09:02:55;;;;;;;4.28;3.88;;;21.20;99.90;;;;;;5042263;28;20112;-71
2022/07/29 09:05:28;;;;;;;6.15;3.50;;;21.20;99.90;;;;;;5037284;28;20041;-71
2022/07/29 09:08:01;;;;;;;4.30;3.63;;;21.30;99.90;;;;;;5046961;28;20037;-71
2022/07/29 09:10:35;;;;;;;4.72;3.85;;;21.40;99.90;;;;;;5025550;28;20042;-71
2022/07/29 09:13:02;;;;;;;4.95;4.43;;;21.60;99.90;;;;;;5023415;28;20515;-71
2022/07/29 09:15:34;;;;;;;4.18;3.55;;;21.80;99.90;;;;;;5033451;28;20059;-72
2022/07/29 09:18:06;;;;;;;5.50;4.05;;;21.80;99.90;;;;;;5031051;28;20132;-71
2022/07/29 09:23:28;;;;;;;7.88;4.15;;;21.80;99.90;;;;;;4995062;28;20044;-71
2022/07/29 09:26:05;;;;;;;4.13;3.72;;;21.90;99.90;;;;;;5035545;28;20132;-71
2022/07/29 09:28:32;;;;;;;4.75;3.92;;;22.10;99.90;;;;;;5028440;28;20050;-72
2022/07/29 09:31:05;;;;;;;6.18;4.43;;;22.20;99.90;;;;;;5026530;28;20044;-71
2022/07/29 09:33:40;;;;;;;5.63;4.57;;;22.30;99.90;;;;;;5018480;28;20053;-70
2022/07/29 09:36:11;;;;;;;5.68;4.35;;;22.40;99.90;;;;;;5048066;28;20049;-71
2022/07/29 09:39:00;;;;;;;4.97;4.47;;;22.50;99.90;;;;;;5031591;28;20052;-71
2022/07/29 09:41:45;;;;;;;5.32;4.35;;;22.50;99.90;;;;;;5023883;28;20425;-71
2022/07/29 09:44:18;;;;;;;5.15;4.65;;;22.70;99.90;;;;;;5010790;28;20096;-71
2022/07/29 09:47:06;;;;;;;5.72;3.92;;;22.80;99.90;;;;;;5035860;28;20053;-71
2022/07/29 09:49:50;;;;;;;;;;;23.00;99.90;;;;;;5039240;28;20057;-71
2022/07/29 09:52:22;;;;;;;5.28;4.78;;;23.10;99.90;;;;;;5040425;28;19927;-70
2022/07/29 09:55:07;;;;;;;5.22;4.65;;;23.30;99.90;;;;;;5053343;28;20411;-71
2022/07/29 09:57:39;;;;;;;5.45;4.72;;;23.40;99.90;;;;;;4999670;28;20046;-71
2022/07/29 10:00:14;;;;;;;5.57;4.68;;;23.50;99.90;;;;;;5034985;28;20428;-70
2022/07/29 10:02:47;;;;;;;4.75;4.30;;;23.60;99.90;;;;;;5020938;28;20041;-70
2022/07/29 10:05:24;;;;;;;15.70;4.82;;;23.60;99.90;;;;;;5049940;28;20111;-71
2022/07/29 10:07:57;;;;;;;4.32;3.85;;;23.60;99.90;;;;;;5053122;28;20124;-70
2022/07/29 10:10:31;;;;;;;5.00;3.58;;;23.80;99.90;;;;;;5040986;28;20037;-70
2022/07/29 10:13:10;;;;;;;4.60;3.70;;;23.90;99.90;;;;;;5037533;28;20064;-70
2022/07/29 10:15:44;;;;;;;7.68;3.38;;;24.00;99.90;;;;;;5007278;28;20041;-70
2022/07/29 10:18:13;;;;;;;6.28;3.78;;;24.00;99.90;;;;;;5017265;28;20038;-70
2022/07/29 10:20:45;;;;;;;4.07;3.20;;;24.00;99.90;;;;;;5025374;28;20038;-71
2022/07/29 10:23:17;;;;;;;3.23;2.93;;;24.10;99.90;;;;;;5027169;28;20047;-71
2022/07/29 10:25:49;;;;;;;3.28;2.97;;;24.10;99.90;;;;;;5023947;28;20037;-70
2022/07/29 10:28:21;;;;;;;3.17;2.97;;;24.10;99.90;;;;;;5034997;28;20428;-71
2022/07/29 10:31:01;;;;;;;5.18;3.45;;;24.20;99.90;;;;;;5029833;28;20116;-70
2022/07/29 10:34:11;;;;;;;4.13;3.53;;;24.20;99.90;;;;;;5032274;28;20429;-70
2022/07/29 10:37:11;;;;;;;4.15;2.95;;;24.10;99.90;;;;;;4945810;29;20051;-71
2022/07/29 10:43:22;;;;;;;5.35;3.00;;;24.10;99.90;;;;;;5047412;28;20044;-70
2022/07/29 10:45:59;;;;;;;3.75;3.38;;;24.30;99.90;;;;;;5025697;28;20530;-70
2022/07/29 10:48:31;;;;;;;4.25;2.90;;;24.30;99.90;;;;;;5036070;28;20041;-71
2022/07/29 10:51:04;;;;;;;3.88;3.58;;;24.50;99.90;;;;;;5014099;28;20466;-70
2022/07/29 10:53:52;;;;;;;7.25;3.15;;;24.70;99.90;;;;;;5045687;28;20489;-70
2022/07/29 10:56:27;;;;;;;3.83;3.53;;;24.90;99.90;;;;;;5035619;28;20052;-70
2022/07/29 10:59:31;;;;;;;4.85;3.20;;;25.10;99.90;;;;;;5038656;28;20038;-71
2022/07/29 11:02:22;;;;;;;;;;;25.30;99.90;;;;;;5023049;28;20060;-70
2022/07/29 11:04:54;;;;;;;3.40;3.10;;;25.40;99.90;;;;;;5040808;28;19975;-70
2022/07/29 11:07:26;;;;;;;3.95;2.78;;;25.30;99.90;;;;;;5021820;28;20041;-71
2022/07/29 11:10:14;;;;;;;5.55;2.97;;;25.20;99.90;;;;;;5033011;28;20475;-71
2022/07/29 11:12:47;;;;;;;3.58;2.50;;;25.10;99.90;;;;;;5042917;28;20049;-70
2022/07/29 11:15:23;;;;;;;;;;;25.10;99.90;;;;;;5042639;28;20808;-71
2022/07/29 11:17:58;;;;;;;7.10;3.40;;;25.30;99.90;;;;;;5023067;28;19921;-70
2022/07/29 11:20:37;;;;;;;4.53;2.92;;;25.30;99.90;;;;;;5022089;28;20499;-70
2022/07/29 11:23:26;;;;;;;5.25;2.83;;;25.60;99.90;;;;;;5033480;28;20490;-71
2022/07/29 11:26:23;;;;;;;3.90;3.15;;;25.80;99.90;;;;;;5035820;28;20040;-70
2022/07/29 11:29:13;;;;;;;3.38;2.78;;;26.10;99.90;;;;;;5042983;28;20037;-70
2022/07/29 11:31:50;;;;;;;3.95;3.03;;;26.20;99.90;;;;;;5020677;28;20034;-70
2022/07/29 11:34:32;;;;;;;4.57;2.80;;;26.40;99.90;;;;;;5032111;28;20049;-68
2022/07/29 11:37:07;;;;;;;3.40;2.97;;;26.20;99.90;;;;;;5042026;28;20497;-69
2022/07/29 11:39:41;;;;;;;4.30;2.63;;;26.00;99.90;;;;;;5028999;28;20049;-68
2022/07/29 11:42:16;;;;;;;3.17;2.50;;;25.70;99.90;;;;;;5044800;28;20045;-68
2022/07/29 11:45:12;;;;;;;2.63;2.40;;;25.50;99.90;;;;;;5035547;28;20040;-68
2022/07/29 11:47:48;;;;;;;2.53;2.15;;;25.40;99.90;;;;;;5026070;28;20515;-68
2022/07/29 11:50:28;;;;;;;3.00;2.53;;;25.30;99.90;;;;;;5020214;28;20619;-69
2022/07/29 11:53:02;;;;;;;4.22;1.95;;;25.30;99.90;;;;;;5037912;28;20102;-68
2022/07/29 11:55:38;;;;;;;4.30;2.30;;;25.20;99.90;;;;;;5037623;28;20032;-68
2022/07/29 11:58:09;;;;;;;3.03;2.25;;;25.10;99.90;;;;;;5032344;28;20051;-69
2022/07/29 12:00:42;;;;;;;12.43;4.63;;;25.20;99.90;;;;;;5036313;28;20129;-68
2022/07/29 12:03:27;;;;;;;3.50;2.22;;;25.00;99.90;;;;;;5034647;28;20047;-70
2022/07/29 12:05:59;;;;;;;2.88;2.30;;;25.00;99.90;;;;;;5044164;28;20061;-68
2022/07/29 12:08:40;;;;;;;4.22;2.88;;;25.00;99.90;;;;;;5024932;28;20041;-71
2022/07/29 12:11:20;;;;;;;3.85;2.50;;;25.00;99.90;;;;;;5035433;28;20045;-68
2022/07/29 12:13:52;;;;;;;4.10;2.20;;;25.00;99.90;;;;;;5045957;28;20045;-68
2022/07/29 12:16:37;;;;;;;2.70;2.50;;;25.10;99.90;;;;;;5039212;28;20046;-68
2022/07/29 12:19:09;;;;;;;2.78;2.55;;;25.20;99.90;;;;;;5043788;28;20045;-70
2022/07/29 12:21:48;;;;;;;2.40;2.20;;;25.00;99.90;;;;;;5029160;28;20049;-68
2022/07/29 12:24:21;;;;;;;2.75;2.50;;;24.90;99.90;;;;;;5011303;28;20042;-68
2022/07/29 12:26:59;;;;;;;;;;;24.80;99.90;;;;;;5025330;23;20069;-88
2022/07/29 12:29:27;;;;;;;2.88;2.20;;;24.70;99.90;;;;;;5029051;28;19925;-87
2022/07/29 12:31:54;;;;;;;3.13;2.40;;;24.70;99.90;;;;;;5030403;28;20124;-87
2022/07/29 12:34:28;;;;;;;3.30;2.20;;;24.70;99.90;;;;;;5030434;28;20435;-88
2022/07/29 12:36:55;;;;;;;3.97;2.10;;;24.50;99.80;;;;;;5021584;28;20049;-87
2022/07/29 12:39:22;;;;;;;2.33;2.08;;;24.50;99.90;;;;;;5027355;28;20112;-88
2022/07/29 12:41:49;;;;;;;6.43;2.53;;;24.40;99.90;;;;;;5057683;23;20057;-73
2022/07/29 12:44:20;;;;;;;3.17;2.40;;;24.40;99.90;;;;;;5024993;28;20037;-73
2022/07/29 12:47:03;;;;;;;4.68;2.92;;;24.30;99.90;;;;;;5034619;28;20033;-72
2022/07/29 12:49:34;;;;;;;2.85;2.13;;;24.30;99.90;;;;;;5047458;28;20059;-71
2022/07/29 12:52:32;;;;;;;4.70;2.47;;;24.30;99.90;;;;;;5056324;28;20396;-71
2022/07/29 12:55:00;;;;;;;5.75;2.50;;;24.30;99.90;;;;;;5045197;28;20064;-72
2022/07/29 12:57:43;;;;;;;;;;;24.30;99.90;;;;;;5044199;28;20072;-73
2022/07/29 13:00:16;;;;;;;3.00;2.00;;;24.20;99.90;;;;;;5044919;28;19926;-72
2022/07/29 13:02:58;;;;;;;4.53;2.25;;;24.10;99.90;;;;;;5033692;28;20042;-71
2022/07/29 13:05:44;;;;;;;4.57;3.45;;;24.00;99.90;;;;;;5039143;28;20029;-72
2022/07/29 13:08:18;;;;;;;3.03;2.53;;;24.00;99.90;;;;;;5042359;28;20044;-72
2022/07/29 13:10:50;;;;;;;4.15;2.53;;;24.00;99.90;;;;;;5036881;28;20098;-72
2022/07/29 13:13:21;;;;;;;2.28;2.08;;;24.00;99.90;;;;;;5036194;28;20075;-72
2022/07/29 13:16:07;;;;;;;4.68;2.85;;;24.00;99.90;;;;;;5059712;28;20037;-72
2022/07/29 13:18:41;;;;;;;3.92;2.53;;;24.00;99.90;;;;;;5027907;28;20065;-72
2022/07/29 13:21:15;;;;;;;2.92;2.42;;;24.00;99.90;;;;;;5051834;28;20044;-72
2022/07/29 13:23:46;;;;;;;5.82;2.50;;;24.00;99.90;;;;;;5071855;28;20037;-72
2022/07/29 13:26:19;;;;;;;4.28;2.80;;;24.00;99.90;;;;;;5047680;28;20412;-72
2022/07/29 13:28:51;;;;;;;3.35;2.47;;;24.00;99.90;;;;;;5032442;28;20033;-72
2022/07/29 13:31:17;;;;;;;3.53;2.50;;;24.10;99.90;;;;;;5058046;28;20037;-72